Time,TemperatureF,DewpointF,PressureIn,WindDirection,WindDirectionDegrees,WindSpeedMPH,WindSpeedGustMPH,Humidity,HourlyPrecipIn,Conditions,Clouds,dailyrainin,SoftwareType,DateUTC
2013-06-11 00:00:00,57.3,53.5,30.15,South,190,4.0,22.0,87,0.00,,,0.00,Wunderground v.1.15,2013-06-11 03:00:00,
2013-06-11 00:10:00,57.1,53.0,30.15,SSW,193,4.0,4.0,86,0.00,,,0.00,Wunderground v.1.15,2013-06-11 03:10:00,
2013-06-11 00:20:00,56.9,52.8,30.15,South,177,4.0,4.0,86,0.00,,,0.00,Wunderground v.1.15,2013-06-11 03:20:00,
2013-06-11 00:30:00,56.8,52.3,30.15,SSE,165,4.0,22.0,85,0.00,,,0.00,Wunderground v.1.15,2013-06-11 03:30:00,
2013-06-11 00:40:00,56.5,52.0,30.15,South,187,4.0,4.0,85,0.00,,,0.00,Wunderground v.1.15,2013-06-11 03:40:00,
2013-06-11 00:50:00,56.4,51.6,30.15,South,170,5.0,5.0,84,0.00,,,0.00,Wunderground v.1.15,2013-06-11 03:50:00,
2013-06-11 01:00:00,56.3,51.5,30.15,SW,224,5.0,22.0,84,0.00,,,0.00,Wunderground v.1.15,2013-06-11 04:00:00,
2013-06-11 01:10:00,56.1,51.0,30.15,South,191,5.0,22.0,83,0.00,,,0.00,Wunderground v.1.15,2013-06-11 04:10:00,
2013-06-11 01:20:00,55.8,51.0,30.15,SSE,164,5.0,22.0,84,0.00,,,0.00,Wunderground v.1.15,2013-06-11 04:20:00,
2013-06-11 01:30:00,55.5,50.7,30.14,SSW,194,5.0,5.0,84,0.00,,,0.00,Wunderground v.1.15,2013-06-11 04:30:00,
2013-06-11 01:40:00,55.4,50.6,30.15,SSW,209,5.0,5.0,84,0.00,,,0.00,Wunderground v.1.15,2013-06-11 04:40:00,
2013-06-11 01:50:00,55.1,50.7,30.15,SSW,211,5.0,22.0,85,0.00,,,0.00,Wunderground v.1.15,2013-06-11 04:50:00,
2013-06-11 02:00:00,54.9,50.5,30.15,SSE,167,5.0,22.0,85,0.00,,,0.00,Wunderground v.1.15,2013-06-11 05:00:00,
2013-06-11 02:10:00,54.5,50.4,30.14,SSE,164,4.0,22.0,86,0.00,,,0.00,Wunderground v.1.15,2013-06-11 05:10:00,
2013-06-11 02:20:00,54.2,50.1,30.14,South,181,4.0,22.0,86,0.00,,,0.00,Wunderground v.1.15,2013-06-11 05:20:00,
2013-06-11 02:30:00,54.0,50.2,30.14,SW,226,4.0,4.0,87,0.00,,,0.00,Wunderground v.1.15,2013-06-11 05:30:00,
2013-06-11 02:40:00,53.9,50.1,30.14,SSE,165,3.0,22.0,87,0.00,,,0.00,Wunderground v.1.15,2013-06-11 05:40:00,
2013-06-11 02:50:00,53.8,50.0,30.14,SW,232,4.0,4.0,87,0.00,,,0.00,Wunderground v.1.15,2013-06-11 05:50:00,
2013-06-11 03:00:00,53.8,50.0,30.13,South,173,3.0,22.0,87,0.00,,,0.00,Wunderground v.1.15,2013-06-11 06:00:00,
2013-06-11 03:10:00,53.8,50.3,30.13,South,191,3.0,3.0,88,0.00,,,0.00,Wunderground v.1.15,2013-06-11 06:10:00,
2013-06-11 03:20:00,53.6,50.4,30.13,SSW,205,4.0,4.0,89,0.00,,,0.00,Wunderground v.1.15,2013-06-11 06:20:00,
2013-06-11 03:30:00,53.5,50.3,30.13,SE,146,3.0,22.0,89,0.00,,,0.00,Wunderground v.1.15,2013-06-11 06:30:00,
2013-06-11 03:40:00,53.5,50.3,30.13,SW,228,3.0,22.0,89,0.00,,,0.00,Wunderground v.1.15,2013-06-11 06:40:00,
2013-06-11 03:50:00,53.5,50.3,30.13,SSW,194,4.0,22.0,89,0.00,,,0.00,Wunderground v.1.15,2013-06-11 06:50:00,
2013-06-11 04:00:00,53.4,50.2,30.13,South,181,3.0,3.0,89,0.00,,,0.00,Wunderground v.1.15,2013-06-11 07:00:00,
2013-06-11 04:10:00,53.1,49.9,30.13,South,179,3.0,22.0,89,0.00,,,0.00,Wunderground v.1.15,2013-06-11 07:10:00,
2013-06-11 04:20:00,53.2,50.3,30.13,SSW,193,3.0,22.0,90,0.00,,,0.00,Wunderground v.1.15,2013-06-11 07:20:00,
2013-06-11 04:30:00,53.2,50.3,30.13,South,178,4.0,4.0,90,0.00,,,0.00,Wunderground v.1.15,2013-06-11 07:30:00,
2013-06-11 04:40:00,53.2,50.0,30.13,SSW,212,3.0,22.0,89,0.00,,,0.00,Wunderground v.1.15,2013-06-11 07:40:00,
2013-06-11 04:50:00,53.1,50.2,30.13,SSW,195,3.0,22.0,90,0.00,,,0.00,Wunderground v.1.15,2013-06-11 07:50:00,
2013-06-11 05:00:00,53.0,49.8,30.13,SSW,205,3.0,3.0,89,0.00,,,0.00,Wunderground v.1.15,2013-06-11 08:00:00,
2013-06-11 05:10:00,52.8,49.9,30.12,SE,143,2.0,22.0,90,0.00,,,0.00,Wunderground v.1.15,2013-06-11 08:10:00,
2013-06-11 05:20:00,52.8,49.9,30.13,South,190,2.0,22.0,90,0.00,,,0.00,Wunderground v.1.15,2013-06-11 08:20:00,
2013-06-11 05:30:00,53.1,50.2,30.12,SSW,193,2.0,22.0,90,0.00,,,0.00,Wunderground v.1.15,2013-06-11 08:30:00,
2013-06-11 05:40:00,53.0,50.1,30.12,SE,136,2.0,22.0,90,0.00,,,0.00,Wunderground v.1.15,2013-06-11 08:40:00,
2013-06-11 05:50:00,53.0,50.1,30.12,SE,136,2.0,22.0,90,0.00,,,0.00,Wunderground v.1.15,2013-06-11 08:50:00,
2013-06-11 06:00:00,53.4,50.5,30.12,South,183,2.0,2.0,90,0.00,,,0.00,Wunderground v.1.15,2013-06-11 09:00:00,
2013-06-11 06:10:00,53.8,50.9,30.12,South,174,2.0,22.0,90,0.00,,,0.00,Wunderground v.1.15,2013-06-11 09:10:00,
2013-06-11 06:20:00,54.1,50.9,30.12,South,179,3.0,3.0,89,0.00,,,0.00,Wunderground v.1.15,2013-06-11 09:20:00,
2013-06-11 06:30:00,54.5,51.3,30.12,SSW,198,4.0,22.0,89,0.00,,,0.00,Wunderground v.1.15,2013-06-11 09:30:00,
2013-06-11 06:40:00,55.3,51.8,30.12,SSW,208,3.0,22.0,88,0.00,,,0.00,Wunderground v.1.15,2013-06-11 09:40:00,
2013-06-11 06:50:00,56.1,52.3,30.12,South,169,3.0,22.0,87,0.00,,,0.00,Wunderground v.1.15,2013-06-11 09:50:00,
2013-06-11 07:00:00,56.7,52.6,30.12,SE,135,3.0,3.0,86,0.00,,,0.00,Wunderground v.1.15,2013-06-11 10:00:00,
2013-06-11 07:10:00,57.5,53.0,30.12,SSW,201,3.0,22.0,85,0.00,,,0.00,Wunderground v.1.15,2013-06-11 10:10:00,
2013-06-11 07:20:00,58.1,53.6,30.12,SSE,168,3.0,3.0,85,0.00,,,0.00,Wunderground v.1.15,2013-06-11 10:20:00,
2013-06-11 07:30:00,58.9,54.1,30.12,SW,225,3.0,3.0,84,0.00,,,0.00,Wunderground v.1.15,2013-06-11 10:30:00,
2013-06-11 07:40:00,59.8,54.6,30.12,SW,218,3.0,22.0,83,0.00,,,0.00,Wunderground v.1.15,2013-06-11 10:40:00,
2013-06-11 07:50:00,60.9,55.4,30.11,SSW,208,3.0,22.0,82,0.00,,,0.00,Wunderground v.1.15,2013-06-11 10:50:00,
2013-06-11 08:00:00,61.4,55.2,30.11,SE,143,3.0,22.0,80,0.00,,,0.00,Wunderground v.1.15,2013-06-11 11:00:00,
2013-06-11 08:10:00,62.3,56.0,30.11,SSE,154,3.0,22.0,80,0.00,,,0.00,Wunderground v.1.15,2013-06-11 11:10:00,
2013-06-11 08:20:00,63.3,56.3,30.11,SE,128,3.0,22.0,78,0.00,,,0.00,Wunderground v.1.15,2013-06-11 11:20:00,
2013-06-11 08:30:00,63.4,56.1,30.11,SE,134,4.0,22.0,77,0.00,,,0.00,Wunderground v.1.15,2013-06-11 11:30:00,
2013-06-11 08:40:00,63.4,56.4,30.10,SSE,168,4.0,4.0,78,0.00,,,0.00,Wunderground v.1.15,2013-06-11 11:40:00,
2013-06-11 08:50:00,64.0,57.0,30.10,SSW,205,4.0,22.0,78,0.00,,,0.00,Wunderground v.1.15,2013-06-11 11:50:00,
2013-06-11 09:00:00,64.9,57.9,30.10,SSW,203,4.0,4.0,78,0.00,,,0.00,Wunderground v.1.15,2013-06-11 12:00:00,
2013-06-11 09:10:00,65.5,57.4,30.10,South,187,4.0,22.0,75,0.00,,,0.00,Wunderground v.1.15,2013-06-11 12:10:00,
2013-06-11 09:20:00,65.4,58.0,30.10,SSW,195,4.0,4.0,77,0.00,,,0.00,Wunderground v.1.15,2013-06-11 12:20:00,
2013-06-11 09:30:00,65.2,57.8,30.10,South,191,4.0,22.0,77,0.00,,,0.00,Wunderground v.1.15,2013-06-11 12:30:00,
2013-06-11 09:40:00,65.8,58.4,30.09,WSW,238,4.0,4.0,77,0.00,,,0.00,Wunderground v.1.15,2013-06-11 12:40:00,
2013-06-11 09:50:00,66.9,59.5,30.09,SW,232,3.0,22.0,77,0.00,,,0.00,Wunderground v.1.15,2013-06-11 12:50:00,
2013-06-11 10:00:00,67.9,60.1,30.09,SSE,167,3.0,22.0,76,0.00,,,0.00,Wunderground v.1.15,2013-06-11 13:00:00,
2013-06-11 10:10:00,68.2,60.0,30.08,South,186,3.0,22.0,75,0.00,,,0.00,Wunderground v.1.15,2013-06-11 13:10:00,
2013-06-11 10:20:00,68.7,60.1,30.08,South,176,4.0,4.0,74,0.00,,,0.00,Wunderground v.1.15,2013-06-11 13:20:00,
2013-06-11 10:30:00,69.1,60.5,30.08,SE,144,4.0,4.0,74,0.00,,,0.00,Wunderground v.1.15,2013-06-11 13:30:00,
2013-06-11 10:40:00,69.4,61.5,30.08,SSE,150,3.0,22.0,76,0.00,,,0.00,Wunderground v.1.15,2013-06-11 13:40:00,
2013-06-11 10:50:00,69.7,59.9,30.08,SW,226,4.0,4.0,71,0.00,,,0.00,Wunderground v.1.15,2013-06-11 13:50:00,
2013-06-11 11:00:00,69.7,60.3,30.08,South,183,4.0,22.0,72,0.00,,,0.00,Wunderground v.1.15,2013-06-11 14:00:00,
2013-06-11 11:10:00,69.9,59.7,30.08,SSW,200,4.0,22.0,70,0.00,,,0.00,Wunderground v.1.15,2013-06-11 14:10:00,
2013-06-11 11:20:00,69.9,60.1,30.06,SSW,193,5.0,22.0,71,0.00,,,0.00,Wunderground v.1.15,2013-06-11 14:20:00,
2013-06-11 11:30:00,69.7,59.1,30.08,South,187,6.0,6.0,69,0.00,,,0.00,Wunderground v.1.15,2013-06-11 14:30:00,
2013-06-11 11:40:00,70.0,58.5,30.08,SSW,210,5.0,22.0,67,0.00,,,0.00,Wunderground v.1.15,2013-06-11 14:40:00,
2013-06-11 11:50:00,70.2,60.0,30.08,South,176,5.0,5.0,70,0.00,,,0.00,Wunderground v.1.15,2013-06-11 14:50:00,
2013-06-11 12:00:00,70.6,58.3,30.07,SSW,207,5.0,22.0,65,0.00,,,0.00,Wunderground v.1.15,2013-06-11 15:00:00,
2013-06-11 12:10:00,71.1,57.9,30.07,SSW,204,5.0,22.0,63,0.00,,,0.00,Wunderground v.1.15,2013-06-11 15:10:00,
2013-06-11 12:20:00,71.3,59.4,30.07,SSW,197,5.0,22.0,66,0.00,,,0.00,Wunderground v.1.15,2013-06-11 15:20:00,
2013-06-11 12:30:00,71.7,58.0,30.04,South,182,4.0,22.0,62,0.00,,,0.00,Wunderground v.1.15,2013-06-11 15:30:00,
2013-06-11 12:40:00,72.4,59.1,30.06,SSE,152,4.0,22.0,63,0.00,,,0.00,Wunderground v.1.15,2013-06-11 15:40:00,
2013-06-11 12:50:00,72.1,58.8,30.06,South,177,6.0,6.0,63,0.00,,,0.00,Wunderground v.1.15,2013-06-11 15:50:00,
2013-06-11 13:00:00,71.9,58.2,30.06,SSW,211,6.0,22.0,62,0.00,,,0.00,Wunderground v.1.15,2013-06-11 16:00:00,
2013-06-11 13:10:00,71.3,57.2,30.03,SSW,195,6.0,22.0,61,0.00,,,0.00,Wunderground v.1.15,2013-06-11 16:10:00,
2013-06-11 13:20:00,71.3,56.2,30.05,SSW,212,6.0,22.0,59,0.00,,,0.00,Wunderground v.1.15,2013-06-11 16:20:00,
2013-06-11 13:30:00,70.8,55.8,30.05,SSW,204,7.0,7.0,59,0.00,,,0.00,Wunderground v.1.15,2013-06-11 16:30:00,
2013-06-11 13:40:00,70.3,53.4,30.03,South,180,6.0,6.0,55,0.00,,,0.00,Wunderground v.1.15,2013-06-11 16:40:00,
2013-06-11 13:50:00,70.1,52.2,30.05,South,187,5.0,22.0,53,0.00,,,0.00,Wunderground v.1.15,2013-06-11 16:50:00,
2013-06-11 14:00:00,69.8,52.9,30.03,WSW,243,4.0,22.0,55,0.00,,,0.00,Wunderground v.1.15,2013-06-11 17:00:00,
2013-06-11 14:10:00,69.7,54.7,30.04,SSW,201,4.0,22.0,59,0.00,,,0.00,Wunderground v.1.15,2013-06-11 17:10:00,
2013-06-11 14:20:00,69.6,55.6,30.04,SSW,203,5.0,5.0,61,0.00,,,0.00,Wunderground v.1.15,2013-06-11 17:20:00,
2013-06-11 14:30:00,69.6,54.6,30.04,WSW,249,3.0,22.0,59,0.00,,,0.00,Wunderground v.1.15,2013-06-11 17:30:00,
2013-06-11 14:40:00,69.5,55.9,30.01,SW,228,4.0,22.0,62,0.00,,,0.00,Wunderground v.1.15,2013-06-11 17:40:00,
2013-06-11 14:50:00,69.3,55.7,30.03,East,87,4.0,4.0,62,0.00,,,0.00,Wunderground v.1.15,2013-06-11 17:50:00,
2013-06-11 15:00:00,69.3,55.7,30.01,SSE,162,3.0,22.0,62,0.00,,,0.00,Wunderground v.1.15,2013-06-11 18:00:00,
2013-06-11 15:10:00,69.4,55.8,30.03,SSW,194,4.0,22.0,62,0.00,,,0.00,Wunderground v.1.15,2013-06-11 18:10:00,
2013-06-11 15:20:00,69.0,56.7,30.03,South,179,6.0,22.0,65,0.00,,,0.00,Wunderground v.1.15,2013-06-11 18:20:00,
2013-06-11 15:30:00,68.2,56.8,30.03,SSW,194,6.0,22.0,67,0.00,,,0.00,Wunderground v.1.15,2013-06-11 18:30:00,
2013-06-11 15:40:00,67.7,56.8,30.03,SSE,156,6.0,22.0,68,0.00,,,0.00,Wunderground v.1.15,2013-06-11 18:40:00,
2013-06-11 15:50:00,66.9,55.6,30.03,SSW,208,7.0,7.0,67,0.00,,,0.00,Wunderground v.1.15,2013-06-11 18:50:00,
2013-06-11 16:00:00,66.3,54.6,30.03,SSW,204,6.0,6.0,66,0.00,,,0.00,Wunderground v.1.15,2013-06-11 19:00:00,
2013-06-11 16:10:00,66.0,55.1,30.02,South,179,6.0,6.0,68,0.00,,,0.00,Wunderground v.1.15,2013-06-11 19:10:00,
2013-06-11 16:20:00,65.7,54.8,30.02,South,187,5.0,22.0,68,0.00,,,0.00,Wunderground v.1.15,2013-06-11 19:20:00,
2013-06-11 16:30:00,65.6,55.2,30.01,SSW,197,5.0,22.0,69,0.00,,,0.00,Wunderground v.1.15,2013-06-11 19:30:00,
2013-06-11 16:40:00,65.6,55.2,30.01,SSW,211,3.0,22.0,69,0.00,,,0.00,Wunderground v.1.15,2013-06-11 19:40:00,
2013-06-11 16:50:00,65.7,55.6,30.00,South,179,4.0,22.0,70,0.00,,,0.00,Wunderground v.1.15,2013-06-11 19:50:00,
2013-06-11 17:00:00,65.9,55.4,30.00,SW,217,3.0,22.0,69,0.00,,,0.00,Wunderground v.1.15,2013-06-11 20:00:00,
2013-06-11 17:10:00,66.0,55.5,30.00,West,269,3.0,22.0,69,0.00,,,0.00,Wunderground v.1.15,2013-06-11 20:10:00,
2013-06-11 17:20:00,65.8,55.3,30.00,SSW,195,4.0,22.0,69,0.00,,,0.00,Wunderground v.1.15,2013-06-11 20:20:00,
2013-06-11 17:30:00,65.7,55.2,29.99,South,181,3.0,3.0,69,0.00,,,0.00,Wunderground v.1.15,2013-06-11 20:30:00,
2013-06-11 17:40:00,65.6,55.5,29.99,South,170,3.0,22.0,70,0.00,,,0.00,Wunderground v.1.15,2013-06-11 20:40:00,
2013-06-11 17:50:00,65.4,55.0,29.99,SSW,205,3.0,22.0,69,0.00,,,0.00,Wunderground v.1.15,2013-06-11 20:50:00,
2013-06-11 18:00:00,65.5,55.5,29.98,SSE,155,2.0,22.0,70,0.00,,,0.00,Wunderground v.1.15,2013-06-11 21:00:00,
2013-06-11 18:10:00,65.4,55.7,29.98,SSE,153,2.0,2.0,71,0.00,,,0.00,Wunderground v.1.15,2013-06-11 21:10:00,
2013-06-11 18:20:00,65.2,55.9,29.98,ESE,120,1.0,22.0,72,0.00,,,0.00,Wunderground v.1.15,2013-06-11 21:20:00,
2013-06-11 18:30:00,64.9,55.7,29.97,SSE,160,2.0,22.0,72,0.00,,,0.00,Wunderground v.1.15,2013-06-11 21:30:00,
2013-06-11 18:40:00,64.8,55.2,29.97,South,171,1.0,1.0,71,0.00,,,0.00,Wunderground v.1.15,2013-06-11 21:40:00,
2013-06-11 18:50:00,64.5,55.3,29.97,SSE,153,1.0,22.0,72,0.00,,,0.00,Wunderground v.1.15,2013-06-11 21:50:00,
2013-06-11 19:00:00,64.2,55.4,29.96,SSE,155,1.0,1.0,73,0.00,,,0.00,Wunderground v.1.15,2013-06-11 22:00:00,
2013-06-11 19:10:00,63.8,55.4,29.96,SE,124,1.0,22.0,74,0.00,,,0.00,Wunderground v.1.15,2013-06-11 22:10:00,
2013-06-11 19:20:00,63.3,55.6,29.97,SE,144,2.0,2.0,76,0.00,,,0.00,Wunderground v.1.15,2013-06-11 22:20:00,
2013-06-11 19:30:00,62.7,55.4,29.97,South,188,2.0,2.0,77,0.00,,,0.00,Wunderground v.1.15,2013-06-11 22:30:00,
2013-06-11 19:40:00,62.2,54.9,29.97,SE,145,2.0,2.0,77,0.00,,,0.00,Wunderground v.1.15,2013-06-11 22:40:00,
2013-06-11 19:50:00,61.8,55.2,29.97,SSW,212,0.0,22.0,79,0.00,,,0.00,Wunderground v.1.15,2013-06-11 22:50:00,
2013-06-11 20:00:00,61.5,54.9,29.97,SSE,151,0.0,22.0,79,0.00,,,0.00,Wunderground v.1.15,2013-06-11 23:00:00,
2013-06-11 20:10:00,61.1,54.9,29.97,SE,125,0.0,22.0,80,0.00,,,0.00,Wunderground v.1.15,2013-06-11 23:10:00,
2013-06-11 20:20:00,60.8,54.9,29.97,East,84,0.0,22.0,81,0.00,,,0.00,Wunderground v.1.15,2013-06-11 23:20:00,
2013-06-11 20:30:00,60.5,54.6,29.97,SE,139,0.0,22.0,81,0.00,,,0.00,Wunderground v.1.15,2013-06-11 23:30:00,
2013-06-11 20:40:00,60.2,54.7,29.96,SE,139,0.0,22.0,82,0.00,,,0.00,Wunderground v.1.15,2013-06-11 23:40:00,
2013-06-11 20:50:00,59.8,54.6,29.95,SSE,166,0.0,22.0,83,0.00,,,0.00,Wunderground v.1.15,2013-06-11 23:50:00,
2013-06-11 21:00:00,59.5,54.7,29.95,SSE,166,0.0,22.0,84,0.00,,,0.00,Wunderground v.1.15,2013-06-12 00:00:00,
2013-06-11 21:10:00,59.3,54.8,29.96,SSE,149,0.0,22.0,85,0.00,,,0.00,Wunderground v.1.15,2013-06-12 00:10:00,
2013-06-11 21:20:00,59.0,54.5,29.96,SSW,194,0.0,22.0,85,0.00,,,0.00,Wunderground v.1.15,2013-06-12 00:20:00,
2013-06-11 21:30:00,59.0,54.5,29.96,SE,129,0.0,22.0,85,0.00,,,0.00,Wunderground v.1.15,2013-06-12 00:30:00,
2013-06-11 21:40:00,58.8,54.0,29.96,SE,129,0.0,22.0,84,0.00,,,0.00,Wunderground v.1.15,2013-06-12 00:40:00,
2013-06-11 21:50:00,58.6,53.8,29.96,SE,140,0.0,22.0,84,0.00,,,0.00,Wunderground v.1.15,2013-06-12 00:50:00,
2013-06-11 22:00:00,58.2,54.0,29.95,SSW,206,1.0,22.0,86,0.00,,,0.00,Wunderground v.1.15,2013-06-12 01:00:00,
2013-06-11 22:10:00,58.4,54.2,29.96,SSW,192,1.0,1.0,86,0.00,,,0.00,Wunderground v.1.15,2013-06-12 01:10:00,
2013-06-11 22:20:00,58.4,53.9,29.96,SSE,159,1.0,1.0,85,0.00,,,0.00,Wunderground v.1.15,2013-06-12 01:20:00,
2013-06-11 22:30:00,58.3,53.8,29.96,SSE,153,0.0,22.0,85,0.00,,,0.00,Wunderground v.1.15,2013-06-12 01:30:00,
2013-06-11 22:40:00,58.1,53.6,29.96,SE,139,0.0,22.0,85,0.00,,,0.00,Wunderground v.1.15,2013-06-12 01:40:00,
2013-06-11 22:50:00,57.9,53.7,29.96,SE,136,1.0,1.0,86,0.00,,,0.00,Wunderground v.1.15,2013-06-12 01:50:00,
2013-06-11 23:00:00,57.8,53.6,29.96,SSE,151,0.0,22.0,86,0.00,,,0.00,Wunderground v.1.15,2013-06-12 02:00:00,
2013-06-11 23:10:00,57.6,53.4,29.95,SE,143,1.0,1.0,86,0.00,,,0.00,Wunderground v.1.15,2013-06-12 02:10:00,
2013-06-11 23:20:00,57.4,53.6,29.95,South,172,1.0,22.0,87,0.00,,,0.00,Wunderground v.1.15,2013-06-12 02:20:00,
2013-06-11 23:30:00,57.5,53.3,29.95,SSW,205,1.0,22.0,86,0.00,,,0.00,Wunderground v.1.15,2013-06-12 02:30:00,
2013-06-11 23:40:00,57.4,53.2,29.95,SSE,156,0.0,22.0,86,0.00,,,0.00,Wunderground v.1.15,2013-06-12 02:40:00,
2013-06-11 23:50:00,57.2,53.0,29.94,SSE,157,0.0,22.0,86,0.00,,,0.00,Wunderground v.1.15,2013-06-12 02:50:00,